sensor_id;sensor_type;location;lat;lon;timestamp;temperature;humidity
61167;DHT22;47038;50.808;3.468;2022-08-03T00:01:03;22.30;93.80
61167;DHT22;47038;50.808;3.468;2022-08-03T00:03:29;22.20;94.40
61167;DHT22;47038;50.808;3.468;2022-08-03T00:05:54;22.30;94.40
61167;DHT22;47038;50.808;3.468;2022-08-03T00:08:20;22.20;94.60
61167;DHT22;47038;50.808;3.468;2022-08-03T00:10:45;22.30;94.60
61167;DHT22;47038;50.808;3.468;2022-08-03T00:13:11;22.20;94.70
61167;DHT22;47038;50.808;3.468;2022-08-03T00:15:40;22.20;94.90
61167;DHT22;47038;50.808;3.468;2022-08-03T00:18:06;22.20;94.90
61167;DHT22;47038;50.808;3.468;2022-08-03T00:20:32;22.20;95.00
61167;DHT22;47038;50.808;3.468;2022-08-03T00:22:57;22.20;95.00
61167;DHT22;47038;50.808;3.468;2022-08-03T00:25:23;22.20;94.90
61167;DHT22;47038;50.808;3.468;2022-08-03T00:27:48;22.10;95.10
61167;DHT22;47038;50.808;3.468;2022-08-03T00:30:14;22.10;95.20
61167;DHT22;47038;50.808;3.468;2022-08-03T00:32:39;22.10;95.20
61167;DHT22;47038;50.808;3.468;2022-08-03T00:35:05;22.00;95.40
61167;DHT22;47038;50.808;3.468;2022-08-03T00:37:31;21.90;95.40
61167;DHT22;47038;50.808;3.468;2022-08-03T00:39:56;21.90;95.50
61167;DHT22;47038;50.808;3.468;2022-08-03T00:42:22;21.90;95.40
61167;DHT22;47038;50.808;3.468;2022-08-03T00:44:47;22.00;95.60
61167;DHT22;47038;50.808;3.468;2022-08-03T00:47:13;21.90;95.80
61167;DHT22;47038;50.808;3.468;2022-08-03T00:49:39;21.80;95.90
61167;DHT22;47038;50.808;3.468;2022-08-03T00:52:04;21.80;96.10
61167;DHT22;47038;50.808;3.468;2022-08-03T00:54:30;21.70;96.00
61167;DHT22;47038;50.808;3.468;2022-08-03T00:56:56;21.60;96.00
61167;DHT22;47038;50.808;3.468;2022-08-03T00:59:22;21.60;96.00
61167;DHT22;47038;50.808;3.468;2022-08-03T01:01:47;21.60;96.30
61167;DHT22;47038;50.808;3.468;2022-08-03T01:04:13;21.60;96.20
61167;DHT22;47038;50.808;3.468;2022-08-03T01:09:27;21.50;96.50
61167;DHT22;47038;50.808;3.468;2022-08-03T01:12:00;21.40;96.50
61167;DHT22;47038;50.808;3.468;2022-08-03T01:14:38;21.30;96.80
61167;DHT22;47038;50.808;3.468;2022-08-03T01:17:12;21.20;96.90
61167;DHT22;47038;50.808;3.468;2022-08-03T01:19:48;21.20;97.10
61167;DHT22;47038;50.808;3.468;2022-08-03T01:30:19;20.90;97.60
61167;DHT22;47038;50.808;3.468;2022-08-03T01:32:47;20.80;97.80
61167;DHT22;47038;50.808;3.468;2022-08-03T01:35:23;20.80;98.00
61167;DHT22;47038;50.808;3.468;2022-08-03T01:37:50;20.80;98.00
61167;DHT22;47038;50.808;3.468;2022-08-03T01:40:18;20.80;97.90
61167;DHT22;47038;50.808;3.468;2022-08-03T01:42:44;20.80;98.00
61167;DHT22;47038;50.808;3.468;2022-08-03T01:45:11;20.70;98.20
61167;DHT22;47038;50.808;3.468;2022-08-03T01:47:38;20.60;98.40
61167;DHT22;47038;50.808;3.468;2022-08-03T01:50:05;20.60;98.50
61167;DHT22;47038;50.808;3.468;2022-08-03T01:52:31;20.60;98.60
61167;DHT22;47038;50.808;3.468;2022-08-03T01:54:57;20.60;98.70
61167;DHT22;47038;50.808;3.468;2022-08-03T01:57:23;20.60;98.70
61167;DHT22;47038;50.808;3.468;2022-08-03T01:59:49;20.60;98.70
61167;DHT22;47038;50.808;3.468;2022-08-03T02:02:15;20.50;99.00
61167;DHT22;47038;50.808;3.468;2022-08-03T02:04:41;20.60;99.10
61167;DHT22;47038;50.808;3.468;2022-08-03T02:07:08;20.60;98.90
61167;DHT22;47038;50.808;3.468;2022-08-03T02:09:35;20.60;98.80
61167;DHT22;47038;50.808;3.468;2022-08-03T02:12:01;20.50;99.00
61167;DHT22;47038;50.808;3.468;2022-08-03T02:14:27;20.40;99.30
61167;DHT22;47038;50.808;3.468;2022-08-03T02:16:54;20.40;99.40
61167;DHT22;47038;50.808;3.468;2022-08-03T02:19:20;20.40;99.40
61167;DHT22;47038;50.808;3.468;2022-08-03T02:21:46;20.50;99.30
61167;DHT22;47038;50.808;3.468;2022-08-03T02:24:13;20.50;99.20
61167;DHT22;47038;50.808;3.468;2022-08-03T02:26:38;20.50;99.10
61167;DHT22;47038;50.808;3.468;2022-08-03T02:29:06;20.50;99.20
61167;DHT22;47038;50.808;3.468;2022-08-03T02:31:33;20.50;99.30
61167;DHT22;47038;50.808;3.468;2022-08-03T02:34:02;20.50;99.40
61167;DHT22;47038;50.808;3.468;2022-08-03T02:36:30;20.50;99.20
61167;DHT22;47038;50.808;3.468;2022-08-03T02:38:58;20.40;99.30
61167;DHT22;47038;50.808;3.468;2022-08-03T02:41:27;20.30;99.30
61167;DHT22;47038;50.808;3.468;2022-08-03T02:43:53;20.30;99.60
61167;DHT22;47038;50.808;3.468;2022-08-03T02:46:21;20.20;99.70
61167;DHT22;47038;50.808;3.468;2022-08-03T02:48:48;20.30;99.70
61167;DHT22;47038;50.808;3.468;2022-08-03T02:51:16;20.30;99.70
61167;DHT22;47038;50.808;3.468;2022-08-03T02:53:42;20.30;99.70
61167;DHT22;47038;50.808;3.468;2022-08-03T02:56:09;20.30;99.60
61167;DHT22;47038;50.808;3.468;2022-08-03T02:58:36;20.30;99.70
61167;DHT22;47038;50.808;3.468;2022-08-03T03:01:02;20.30;99.80
61167;DHT22;47038;50.808;3.468;2022-08-03T03:03:29;20.30;99.90
61167;DHT22;47038;50.808;3.468;2022-08-03T03:05:54;20.30;99.80
61167;DHT22;47038;50.808;3.468;2022-08-03T03:08:21;20.40;99.70
61167;DHT22;47038;50.808;3.468;2022-08-03T03:10:47;20.30;99.60
61167;DHT22;47038;50.808;3.468;2022-08-03T03:13:14;20.30;99.90
61167;DHT22;47038;50.808;3.468;2022-08-03T03:15:39;20.30;99.80
61167;DHT22;47038;50.808;3.468;2022-08-03T03:18:06;20.30;99.90
61167;DHT22;47038;50.808;3.468;2022-08-03T03:20:34;20.30;99.90
61167;DHT22;47038;50.808;3.468;2022-08-03T03:23:01;20.20;99.90
61167;DHT22;47038;50.808;3.468;2022-08-03T03:25:27;20.20;99.90
61167;DHT22;47038;50.808;3.468;2022-08-03T03:27:53;20.20;99.90
61167;DHT22;47038;50.808;3.468;2022-08-03T03:30:19;20.20;99.90
61167;DHT22;47038;50.808;3.468;2022-08-03T03:32:44;20.20;99.90
61167;DHT22;47038;50.808;3.468;2022-08-03T03:35:10;20.30;99.70
61167;DHT22;47038;50.808;3.468;2022-08-03T03:37:36;20.20;99.90
61167;DHT22;47038;50.808;3.468;2022-08-03T03:40:01;20.20;99.80
61167;DHT22;47038;50.808;3.468;2022-08-03T03:42:28;20.20;99.60
61167;DHT22;47038;50.808;3.468;2022-08-03T03:44:54;20.10;99.70
61167;DHT22;47038;50.808;3.468;2022-08-03T03:47:20;20.10;99.90
61167;DHT22;47038;50.808;3.468;2022-08-03T03:49:45;20.00;99.90
61167;DHT22;47038;50.808;3.468;2022-08-03T03:52:11;20.10;99.90
61167;DHT22;47038;50.808;3.468;2022-08-03T03:54:40;20.10;99.90
61167;DHT22;47038;50.808;3.468;2022-08-03T03:57:06;20.00;99.90
61167;DHT22;47038;50.808;3.468;2022-08-03T03:59:36;20.00;99.90
61167;DHT22;47038;50.808;3.468;2022-08-03T04:02:01;20.00;99.90
61167;DHT22;47038;50.808;3.468;2022-08-03T04:04:27;19.80;99.90
61167;DHT22;47038;50.808;3.468;2022-08-03T04:07:11;19.70;99.90
61167;DHT22;47038;50.808;3.468;2022-08-03T04:09:56;19.70;99.90
61167;DHT22;47038;50.808;3.468;2022-08-03T04:12:40;19.80;99.90
61167;DHT22;47038;50.808;3.468;2022-08-03T04:15:06;19.80;99.90
61167;DHT22;47038;50.808;3.468;2022-08-03T04:17:32;19.90;99.90
61167;DHT22;47038;50.808;3.468;2022-08-03T04:19:58;19.80;99.90
61167;DHT22;47038;50.808;3.468;2022-08-03T04:22:26;19.80;99.90
61167;DHT22;47038;50.808;3.468;2022-08-03T04:25:09;19.80;99.90
61167;DHT22;47038;50.808;3.468;2022-08-03T04:27:39;19.90;99.90
61167;DHT22;47038;50.808;3.468;2022-08-03T04:30:05;19.70;99.90
61167;DHT22;47038;50.808;3.468;2022-08-03T04:32:31;19.60;99.90
61167;DHT22;47038;50.808;3.468;2022-08-03T04:34:58;19.70;99.90
61167;DHT22;47038;50.808;3.468;2022-08-03T04:37:45;19.70;99.90
61167;DHT22;47038;50.808;3.468;2022-08-03T04:40:21;19.70;99.90
61167;DHT22;47038;50.808;3.468;2022-08-03T04:42:49;19.70;99.90
61167;DHT22;47038;50.808;3.468;2022-08-03T04:45:15;19.80;99.90
61167;DHT22;47038;50.808;3.468;2022-08-03T04:47:41;19.80;99.90
61167;DHT22;47038;50.808;3.468;2022-08-03T04:50:07;19.90;99.90
61167;DHT22;47038;50.808;3.468;2022-08-03T04:52:34;19.90;99.90
61167;DHT22;47038;50.808;3.468;2022-08-03T04:54:59;19.90;99.90
61167;DHT22;47038;50.808;3.468;2022-08-03T04:57:25;19.90;99.90
61167;DHT22;47038;50.808;3.468;2022-08-03T04:59:51;20.00;99.90
61167;DHT22;47038;50.808;3.468;2022-08-03T05:02:19;20.10;99.90
61167;DHT22;47038;50.808;3.468;2022-08-03T05:04:45;20.00;99.90
61167;DHT22;47038;50.808;3.468;2022-08-03T05:07:11;20.10;99.90
61167;DHT22;47038;50.808;3.468;2022-08-03T05:09:37;20.10;99.90
61167;DHT22;47038;50.808;3.468;2022-08-03T05:12:03;20.10;99.90
61167;DHT22;47038;50.808;3.468;2022-08-03T05:14:29;20.20;99.90
61167;DHT22;47038;50.808;3.468;2022-08-03T05:16:54;20.30;99.80
61167;DHT22;47038;50.808;3.468;2022-08-03T05:19:20;20.40;99.90
61167;DHT22;47038;50.808;3.468;2022-08-03T05:21:45;20.60;99.70
61167;DHT22;47038;50.808;3.468;2022-08-03T05:24:11;20.80;99.50
61167;DHT22;47038;50.808;3.468;2022-08-03T05:26:37;20.70;99.50
61167;DHT22;47038;50.808;3.468;2022-08-03T05:29:03;20.80;99.30
61167;DHT22;47038;50.808;3.468;2022-08-03T05:31:28;20.80;99.30
61167;DHT22;47038;50.808;3.468;2022-08-03T05:33:55;20.90;99.30
61167;DHT22;47038;50.808;3.468;2022-08-03T05:36:21;20.90;99.10
61167;DHT22;47038;50.808;3.468;2022-08-03T05:38:47;21.10;99.10
61167;DHT22;47038;50.808;3.468;2022-08-03T05:41:12;21.10;99.00
61167;DHT22;47038;50.808;3.468;2022-08-03T05:43:38;21.20;99.00
61167;DHT22;47038;50.808;3.468;2022-08-03T05:46:03;21.30;98.90
61167;DHT22;47038;50.808;3.468;2022-08-03T05:48:29;21.40;98.80
61167;DHT22;47038;50.808;3.468;2022-08-03T05:50:55;21.50;98.60
61167;DHT22;47038;50.808;3.468;2022-08-03T05:53:20;21.60;98.60
61167;DHT22;47038;50.808;3.468;2022-08-03T05:55:46;21.80;98.30
61167;DHT22;47038;50.808;3.468;2022-08-03T05:58:11;21.80;98.30
61167;DHT22;47038;50.808;3.468;2022-08-03T06:00:37;21.90;98.40
61167;DHT22;47038;50.808;3.468;2022-08-03T06:03:02;22.10;98.10
61167;DHT22;47038;50.808;3.468;2022-08-03T06:05:28;22.30;98.00
61167;DHT22;47038;50.808;3.468;2022-08-03T06:07:53;22.30;97.80
61167;DHT22;47038;50.808;3.468;2022-08-03T06:10:19;22.40;97.70
61167;DHT22;47038;50.808;3.468;2022-08-03T06:12:45;22.40;97.70
61167;DHT22;47038;50.808;3.468;2022-08-03T06:15:13;22.50;97.60
61167;DHT22;47038;50.808;3.468;2022-08-03T06:17:48;22.40;97.70
61167;DHT22;47038;50.808;3.468;2022-08-03T06:20:17;22.40;97.70
61167;DHT22;47038;50.808;3.468;2022-08-03T06:22:43;22.40;97.80
61167;DHT22;47038;50.808;3.468;2022-08-03T06:25:09;22.60;97.10
61167;DHT22;47038;50.808;3.468;2022-08-03T06:27:35;22.70;97.30
61167;DHT22;47038;50.808;3.468;2022-08-03T06:30:04;22.80;96.90
61167;DHT22;47038;50.808;3.468;2022-08-03T06:32:30;22.80;96.80
61167;DHT22;47038;50.808;3.468;2022-08-03T06:34:56;22.90;96.60
61167;DHT22;47038;50.808;3.468;2022-08-03T06:37:21;22.80;96.80
61167;DHT22;47038;50.808;3.468;2022-08-03T06:39:48;22.80;96.80
61167;DHT22;47038;50.808;3.468;2022-08-03T06:42:14;23.00;96.70
61167;DHT22;47038;50.808;3.468;2022-08-03T06:44:39;23.20;96.40
61167;DHT22;47038;50.808;3.468;2022-08-03T06:47:05;23.30;96.20
61167;DHT22;47038;50.808;3.468;2022-08-03T06:49:30;23.10;96.40
61167;DHT22;47038;50.808;3.468;2022-08-03T06:51:56;23.20;96.50
61167;DHT22;47038;50.808;3.468;2022-08-03T06:54:22;23.10;96.60
61167;DHT22;47038;50.808;3.468;2022-08-03T06:56:48;23.30;96.40
61167;DHT22;47038;50.808;3.468;2022-08-03T06:59:14;23.30;96.10
61167;DHT22;47038;50.808;3.468;2022-08-03T07:01:40;23.60;96.10
61167;DHT22;47038;50.808;3.468;2022-08-03T07:04:05;23.80;95.50
61167;DHT22;47038;50.808;3.468;2022-08-03T07:06:31;23.90;95.30
61167;DHT22;47038;50.808;3.468;2022-08-03T07:08:57;24.00;94.90
61167;DHT22;47038;50.808;3.468;2022-08-03T07:11:24;24.10;94.80
61167;DHT22;47038;50.808;3.468;2022-08-03T07:13:49;24.20;94.50
61167;DHT22;47038;50.808;3.468;2022-08-03T07:16:15;24.20;94.60
61167;DHT22;47038;50.808;3.468;2022-08-03T07:18:40;24.40;94.10
61167;DHT22;47038;50.808;3.468;2022-08-03T07:21:06;24.50;94.10
61167;DHT22;47038;50.808;3.468;2022-08-03T07:23:33;24.50;93.80
61167;DHT22;47038;50.808;3.468;2022-08-03T07:25:59;24.40;94.10
61167;DHT22;47038;50.808;3.468;2022-08-03T07:28:24;24.50;94.00
61167;DHT22;47038;50.808;3.468;2022-08-03T07:30:50;24.70;93.50
61167;DHT22;47038;50.808;3.468;2022-08-03T07:33:15;24.70;93.70
61167;DHT22;47038;50.808;3.468;2022-08-03T07:35:41;24.80;93.50
61167;DHT22;47038;50.808;3.468;2022-08-03T07:38:07;25.20;92.70
61167;DHT22;47038;50.808;3.468;2022-08-03T07:40:32;25.40;92.40
61167;DHT22;47038;50.808;3.468;2022-08-03T07:42:58;25.40;92.40
61167;DHT22;47038;50.808;3.468;2022-08-03T07:45:24;25.40;92.20
61167;DHT22;47038;50.808;3.468;2022-08-03T07:47:50;25.40;92.00
61167;DHT22;47038;50.808;3.468;2022-08-03T07:50:16;25.60;91.80
61167;DHT22;47038;50.808;3.468;2022-08-03T07:52:41;25.70;91.40
61167;DHT22;47038;50.808;3.468;2022-08-03T07:55:14;25.70;91.50
61167;DHT22;47038;50.808;3.468;2022-08-03T07:57:39;25.80;91.30
61167;DHT22;47038;50.808;3.468;2022-08-03T08:00:06;25.90;91.30
61167;DHT22;47038;50.808;3.468;2022-08-03T08:02:33;25.80;91.20
61167;DHT22;47038;50.808;3.468;2022-08-03T08:04:59;25.90;91.10
61167;DHT22;47038;50.808;3.468;2022-08-03T08:07:24;26.10;90.60
61167;DHT22;47038;50.808;3.468;2022-08-03T08:09:50;26.20;90.60
61167;DHT22;47038;50.808;3.468;2022-08-03T08:12:16;26.20;90.40
61167;DHT22;47038;50.808;3.468;2022-08-03T08:14:42;26.10;90.70
61167;DHT22;47038;50.808;3.468;2022-08-03T08:17:10;26.20;90.30
61167;DHT22;47038;50.808;3.468;2022-08-03T08:19:35;26.40;89.60
61167;DHT22;47038;50.808;3.468;2022-08-03T08:22:01;26.50;89.30
61167;DHT22;47038;50.808;3.468;2022-08-03T08:24:26;26.60;88.90
61167;DHT22;47038;50.808;3.468;2022-08-03T08:26:55;26.90;87.60
61167;DHT22;47038;50.808;3.468;2022-08-03T08:29:20;27.00;86.70
61167;DHT22;47038;50.808;3.468;2022-08-03T08:31:48;27.00;87.60
61167;DHT22;47038;50.808;3.468;2022-08-03T08:34:14;27.30;87.00
61167;DHT22;47038;50.808;3.468;2022-08-03T08:36:40;27.40;86.30
61167;DHT22;47038;50.808;3.468;2022-08-03T08:39:06;27.20;86.40
61167;DHT22;47038;50.808;3.468;2022-08-03T08:41:31;27.20;85.90
61167;DHT22;47038;50.808;3.468;2022-08-03T08:43:59;27.30;85.70
61167;DHT22;47038;50.808;3.468;2022-08-03T08:46:25;27.20;85.30
61167;DHT22;47038;50.808;3.468;2022-08-03T08:48:51;27.30;86.10
61167;DHT22;47038;50.808;3.468;2022-08-03T08:51:18;27.20;85.60
61167;DHT22;47038;50.808;3.468;2022-08-03T08:53:44;27.40;85.50
61167;DHT22;47038;50.808;3.468;2022-08-03T08:56:13;27.70;85.00
61167;DHT22;47038;50.808;3.468;2022-08-03T08:58:48;27.40;84.70
61167;DHT22;47038;50.808;3.468;2022-08-03T09:01:18;27.40;85.10
61167;DHT22;47038;50.808;3.468;2022-08-03T09:03:45;27.70;84.20
61167;DHT22;47038;50.808;3.468;2022-08-03T09:06:10;27.90;83.60
61167;DHT22;47038;50.808;3.468;2022-08-03T09:08:36;28.00;82.90
61167;DHT22;47038;50.808;3.468;2022-08-03T09:11:01;28.20;83.40
61167;DHT22;47038;50.808;3.468;2022-08-03T09:13:27;28.10;83.10
61167;DHT22;47038;50.808;3.468;2022-08-03T09:18:52;28.10;82.50
61167;DHT22;47038;50.808;3.468;2022-08-03T09:21:20;28.50;81.40
61167;DHT22;47038;50.808;3.468;2022-08-03T09:23:46;28.60;81.30
61167;DHT22;47038;50.808;3.468;2022-08-03T09:26:18;28.50;80.80
61167;DHT22;47038;50.808;3.468;2022-08-03T09:28:44;28.50;80.40
61167;DHT22;47038;50.808;3.468;2022-08-03T09:31:09;28.60;80.30
61167;DHT22;47038;50.808;3.468;2022-08-03T09:33:45;28.80;80.20
61167;DHT22;47038;50.808;3.468;2022-08-03T09:36:13;29.00;79.80
61167;DHT22;47038;50.808;3.468;2022-08-03T09:39:00;29.20;77.40
61167;DHT22;47038;50.808;3.468;2022-08-03T09:41:28;29.30;77.40
61167;DHT22;47038;50.808;3.468;2022-08-03T09:43:54;29.30;77.30
61167;DHT22;47038;50.808;3.468;2022-08-03T09:46:21;29.30;77.20
61167;DHT22;47038;50.808;3.468;2022-08-03T09:48:47;29.50;76.80
61167;DHT22;47038;50.808;3.468;2022-08-03T09:51:12;29.70;75.50
61167;DHT22;47038;50.808;3.468;2022-08-03T09:53:43;29.80;75.40
61167;DHT22;47038;50.808;3.468;2022-08-03T09:56:08;29.60;75.40
61167;DHT22;47038;50.808;3.468;2022-08-03T09:58:38;29.60;76.10
61167;DHT22;47038;50.808;3.468;2022-08-03T10:01:08;29.80;75.30
61167;DHT22;47038;50.808;3.468;2022-08-03T10:03:36;30.00;74.20
61167;DHT22;47038;50.808;3.468;2022-08-03T10:06:15;30.10;75.50
61167;DHT22;47038;50.808;3.468;2022-08-03T10:08:41;30.30;74.30
61167;DHT22;47038;50.808;3.468;2022-08-03T10:11:07;30.30;73.90
61167;DHT22;47038;50.808;3.468;2022-08-03T10:13:32;30.20;74.20
61167;DHT22;47038;50.808;3.468;2022-08-03T10:15:58;30.30;73.90
61167;DHT22;47038;50.808;3.468;2022-08-03T10:18:23;30.20;74.40
61167;DHT22;47038;50.808;3.468;2022-08-03T10:20:52;30.20;73.80
61167;DHT22;47038;50.808;3.468;2022-08-03T10:23:19;30.50;74.20
61167;DHT22;47038;50.808;3.468;2022-08-03T10:25:46;30.50;73.30
61167;DHT22;47038;50.808;3.468;2022-08-03T10:28:14;30.80;73.50
61167;DHT22;47038;50.808;3.468;2022-08-03T10:30:41;30.90;73.00
61167;DHT22;47038;50.808;3.468;2022-08-03T10:33:16;30.90;72.10
61167;DHT22;47038;50.808;3.468;2022-08-03T10:35:42;31.00;71.90
61167;DHT22;47038;50.808;3.468;2022-08-03T10:38:11;31.10;71.70
61167;DHT22;47038;50.808;3.468;2022-08-03T10:40:41;31.20;72.10
61167;DHT22;47038;50.808;3.468;2022-08-03T10:45:51;31.30;71.60
61167;DHT22;47038;50.808;3.468;2022-08-03T10:48:17;31.30;71.10
61167;DHT22;47038;50.808;3.468;2022-08-03T10:50:43;30.90;71.40
61167;DHT22;47038;50.808;3.468;2022-08-03T10:53:09;31.10;71.70
61167;DHT22;47038;50.808;3.468;2022-08-03T10:55:38;31.20;71.70
61167;DHT22;47038;50.808;3.468;2022-08-03T11:01:08;31.10;72.20
61167;DHT22;47038;50.808;3.468;2022-08-03T11:03:34;31.10;72.30
61167;DHT22;47038;50.808;3.468;2022-08-03T11:06:20;31.30;71.50
61167;DHT22;47038;50.808;3.468;2022-08-03T11:08:46;31.40;70.90
61167;DHT22;47038;50.808;3.468;2022-08-03T11:14:01;31.80;70.40
61167;DHT22;47038;50.808;3.468;2022-08-03T11:16:29;31.70;70.40
61167;DHT22;47038;50.808;3.468;2022-08-03T11:18:56;32.00;69.10
61167;DHT22;47038;50.808;3.468;2022-08-03T11:21:49;32.20;68.70
61167;DHT22;47038;50.808;3.468;2022-08-03T11:24:07;32.20;69.00
61167;DHT22;47038;50.808;3.468;2022-08-03T11:26:33;32.30;68.50
61167;DHT22;47038;50.808;3.468;2022-08-03T11:31:43;32.40;68.00
61167;DHT22;47038;50.808;3.468;2022-08-03T11:34:10;32.60;67.20
61167;DHT22;47038;50.808;3.468;2022-08-03T11:39:20;32.50;67.80
61167;DHT22;47038;50.808;3.468;2022-08-03T11:41:46;32.40;67.30
61167;DHT22;47038;50.808;3.468;2022-08-03T11:44:38;32.40;67.50
61167;DHT22;47038;50.808;3.468;2022-08-03T11:46:57;32.50;66.70
61167;DHT22;47038;50.808;3.468;2022-08-03T11:49:24;32.80;65.60
61167;DHT22;47038;50.808;3.468;2022-08-03T11:51:52;32.90;65.80
61167;DHT22;47038;50.808;3.468;2022-08-03T11:54:18;33.10;66.00
61167;DHT22;47038;50.808;3.468;2022-08-03T11:56:48;33.30;65.70
61167;DHT22;47038;50.808;3.468;2022-08-03T11:59:14;33.40;63.90
61167;DHT22;47038;50.808;3.468;2022-08-03T12:01:39;33.40;63.90
61167;DHT22;47038;50.808;3.468;2022-08-03T12:04:05;33.40;64.70
61167;DHT22;47038;50.808;3.468;2022-08-03T12:06:31;33.30;64.80
61167;DHT22;47038;50.808;3.468;2022-08-03T12:09:19;33.20;63.70
61167;DHT22;47038;50.808;3.468;2022-08-03T12:11:48;33.10;64.30
61167;DHT22;47038;50.808;3.468;2022-08-03T12:14:18;33.30;63.50
61167;DHT22;47038;50.808;3.468;2022-08-03T12:16:47;33.30;63.40
61167;DHT22;47038;50.808;3.468;2022-08-03T12:19:15;33.40;63.80
61167;DHT22;47038;50.808;3.468;2022-08-03T12:21:47;33.20;63.80
61167;DHT22;47038;50.808;3.468;2022-08-03T12:24:13;33.30;63.80
61167;DHT22;47038;50.808;3.468;2022-08-03T12:26:45;33.60;63.30
61167;DHT22;47038;50.808;3.468;2022-08-03T12:29:18;33.70;62.90
61167;DHT22;47038;50.808;3.468;2022-08-03T12:31:44;33.70;62.60
61167;DHT22;47038;50.808;3.468;2022-08-03T12:34:09;33.60;63.00
61167;DHT22;47038;50.808;3.468;2022-08-03T12:36:35;33.60;63.00
61167;DHT22;47038;50.808;3.468;2022-08-03T12:39:06;33.70;63.00
61167;DHT22;47038;50.808;3.468;2022-08-03T12:41:32;33.70;62.50
61167;DHT22;47038;50.808;3.468;2022-08-03T12:44:00;33.90;62.30
61167;DHT22;47038;50.808;3.468;2022-08-03T12:46:31;33.80;63.20
61167;DHT22;47038;50.808;3.468;2022-08-03T12:48:57;33.90;62.40
61167;DHT22;47038;50.808;3.468;2022-08-03T12:51:23;34.10;61.40
61167;DHT22;47038;50.808;3.468;2022-08-03T12:53:52;34.20;61.50
61167;DHT22;47038;50.808;3.468;2022-08-03T12:56:18;34.20;61.10
61167;DHT22;47038;50.808;3.468;2022-08-03T12:58:45;34.00;61.40
61167;DHT22;47038;50.808;3.468;2022-08-03T13:01:12;34.00;61.10
61167;DHT22;47038;50.808;3.468;2022-08-03T13:03:41;34.00;61.60
61167;DHT22;47038;50.808;3.468;2022-08-03T13:06:11;34.00;62.10
61167;DHT22;47038;50.808;3.468;2022-08-03T13:08:37;34.00;61.30
61167;DHT22;47038;50.808;3.468;2022-08-03T13:11:22;34.00;61.30
61167;DHT22;47038;50.808;3.468;2022-08-03T13:13:48;34.00;60.70
61167;DHT22;47038;50.808;3.468;2022-08-03T13:16:14;34.20;60.60
61167;DHT22;47038;50.808;3.468;2022-08-03T13:18:40;34.10;60.30
61167;DHT22;47038;50.808;3.468;2022-08-03T13:21:05;34.20;60.30
61167;DHT22;47038;50.808;3.468;2022-08-03T13:23:31;34.50;60.10
61167;DHT22;47038;50.808;3.468;2022-08-03T13:25:57;34.70;60.00
61167;DHT22;47038;50.808;3.468;2022-08-03T13:28:22;34.80;59.20
61167;DHT22;47038;50.808;3.468;2022-08-03T13:30:48;35.00;58.70
61167;DHT22;47038;50.808;3.468;2022-08-03T13:33:13;35.00;58.90
61167;DHT22;47038;50.808;3.468;2022-08-03T13:35:39;34.30;59.60
61167;DHT22;47038;50.808;3.468;2022-08-03T13:38:04;34.20;59.40
61167;DHT22;47038;50.808;3.468;2022-08-03T13:40:30;34.10;59.90
61167;DHT22;47038;50.808;3.468;2022-08-03T13:42:56;33.80;60.20
61167;DHT22;47038;50.808;3.468;2022-08-03T13:45:22;33.90;60.00
61167;DHT22;47038;50.808;3.468;2022-08-03T13:47:48;33.80;60.20
61167;DHT22;47038;50.808;3.468;2022-08-03T13:50:14;33.90;59.90
61167;DHT22;47038;50.808;3.468;2022-08-03T13:52:39;34.10;59.40
61167;DHT22;47038;50.808;3.468;2022-08-03T13:55:05;34.20;59.30
61167;DHT22;47038;50.808;3.468;2022-08-03T13:57:31;34.70;58.70
61167;DHT22;47038;50.808;3.468;2022-08-03T13:59:57;35.00;57.30
61167;DHT22;47038;50.808;3.468;2022-08-03T14:02:23;35.10;57.20
61167;DHT22;47038;50.808;3.468;2022-08-03T14:04:48;35.20;57.10
61167;DHT22;47038;50.808;3.468;2022-08-03T14:07:14;35.30;57.00
61167;DHT22;47038;50.808;3.468;2022-08-03T14:09:39;35.30;57.00
61167;DHT22;47038;50.808;3.468;2022-08-03T14:12:05;35.40;56.10
61167;DHT22;47038;50.808;3.468;2022-08-03T14:14:31;35.30;56.20
61167;DHT22;47038;50.808;3.468;2022-08-03T14:16:56;35.20;56.80
61167;DHT22;47038;50.808;3.468;2022-08-03T14:19:22;35.20;56.60
61167;DHT22;47038;50.808;3.468;2022-08-03T14:21:47;35.10;57.10
61167;DHT22;47038;50.808;3.468;2022-08-03T14:24:13;35.00;56.70
61167;DHT22;47038;50.808;3.468;2022-08-03T14:26:38;35.00;56.40
61167;DHT22;47038;50.808;3.468;2022-08-03T14:29:04;35.00;56.90
61167;DHT22;47038;50.808;3.468;2022-08-03T14:31:30;34.90;57.10
61167;DHT22;47038;50.808;3.468;2022-08-03T14:33:55;34.90;57.20
61167;DHT22;47038;50.808;3.468;2022-08-03T14:36:21;34.90;57.00
61167;DHT22;47038;50.808;3.468;2022-08-03T14:38:47;35.00;55.90
61167;DHT22;47038;50.808;3.468;2022-08-03T14:41:12;35.10;56.30
61167;DHT22;47038;50.808;3.468;2022-08-03T14:43:38;35.40;55.50
61167;DHT22;47038;50.808;3.468;2022-08-03T14:46:03;35.50;55.40
61167;DHT22;47038;50.808;3.468;2022-08-03T14:48:29;35.20;56.10
61167;DHT22;47038;50.808;3.468;2022-08-03T14:50:54;35.30;55.70
61167;DHT22;47038;50.808;3.468;2022-08-03T14:53:21;35.50;55.10
61167;DHT22;47038;50.808;3.468;2022-08-03T14:55:47;35.70;54.60
61167;DHT22;47038;50.808;3.468;2022-08-03T14:58:16;35.70;54.70
61167;DHT22;47038;50.808;3.468;2022-08-03T15:00:42;35.80;55.10
61167;DHT22;47038;50.808;3.468;2022-08-03T15:03:07;36.20;53.90
61167;DHT22;47038;50.808;3.468;2022-08-03T15:05:33;36.30;53.40
61167;DHT22;47038;50.808;3.468;2022-08-03T15:07:58;36.50;53.60
61167;DHT22;47038;50.808;3.468;2022-08-03T15:10:24;36.50;53.10
61167;DHT22;47038;50.808;3.468;2022-08-03T15:12:49;36.40;52.40
61167;DHT22;47038;50.808;3.468;2022-08-03T15:15:15;36.40;52.60
61167;DHT22;47038;50.808;3.468;2022-08-03T15:17:41;36.40;53.00
61167;DHT22;47038;50.808;3.468;2022-08-03T15:20:06;36.50;53.20
61167;DHT22;47038;50.808;3.468;2022-08-03T15:22:33;36.50;52.30
61167;DHT22;47038;50.808;3.468;2022-08-03T15:25:00;36.60;52.90
61167;DHT22;47038;50.808;3.468;2022-08-03T15:27:25;36.90;52.10
61167;DHT22;47038;50.808;3.468;2022-08-03T15:29:51;37.00;52.10
61167;DHT22;47038;50.808;3.468;2022-08-03T15:32:16;37.10;51.80
61167;DHT22;47038;50.808;3.468;2022-08-03T15:34:42;37.00;52.10
61167;DHT22;47038;50.808;3.468;2022-08-03T15:37:07;36.30;52.60
61167;DHT22;47038;50.808;3.468;2022-08-03T15:39:33;36.20;52.70
61167;DHT22;47038;50.808;3.468;2022-08-03T15:41:58;36.10;52.60
61167;DHT22;47038;50.808;3.468;2022-08-03T15:44:24;36.10;53.10
61167;DHT22;47038;50.808;3.468;2022-08-03T15:46:51;36.10;53.00
61167;DHT22;47038;50.808;3.468;2022-08-03T15:49:16;35.90;53.20
61167;DHT22;47038;50.808;3.468;2022-08-03T15:51:42;35.80;53.80
61167;DHT22;47038;50.808;3.468;2022-08-03T15:54:07;36.00;52.40
61167;DHT22;47038;50.808;3.468;2022-08-03T15:56:33;36.20;52.00